Weather observations for the past three days for
Hemet-Ryan Airport
Imperial (Metric)
Date Time (pdt) Wind (mph) Vis. (mi.) Weather Sky Cond. Temperature (ºF) Relative Humidity Wind Chill (°F) Heat Index (°F) Pressure Precipitation (in)
Air Dwpt 6 hour altimeter (in) sea level (mb) 1 hr 3 hr 6 hr
Max. Min.
07 02:55 Calm 10.00 Fair CLR 50 46.4 88% 30.04 0.0
07 02:35 Calm 10.00 Partly Cloudy SCT110 53.6 48.2 82% 30.04 0.0
07 02:15 Calm 10.00 Fair CLR 51.8 46.4 82% 30.05 0.0
07 01:55 Calm 10.00 Fair CLR 53.6 48.2 82% 30.05 0.0
07 01:35 Calm 10.00 Fair CLR 51.8 46.4 82% 30.05 0.0
07 01:15 NW 3 10.00 Fair CLR 51.8 46.4 82% 30.06 0.0
07 00:55 Calm 10.00 Fair CLR 53.6 46.4 77% 30.06 0.0
07 00:35 Calm 10.00 Partly Cloudy SCT120 53.6 46.4 77% 30.06 0.0
07 00:15 Calm 10.00 Partly Cloudy SCT120 55.4 46.4 72% 30.06 0.0
06 23:55 S 3 10.00 Fair CLR 57.2 48.2 72% 30.07 0.0
06 23:35 Calm 10.00 Fair CLR 57.2 48.2 72% 30.07 0.0
06 23:15 Calm 10.00 Fair CLR 57.2 48.2 72% 30.07 0.0
06 22:55 W 3 10.00 Fair CLR 57.2 48.2 72% 30.07 0.0
06 22:35 W 8 10.00 Fair CLR 57.2 48.2 72% 30.07 0.0
06 22:15 SW 8 10.00 Fair CLR 57.2 50 77% 30.07 0.0
06 21:55 SW 8 10.00 Fair CLR 59 50 72% 30.06 0.0
06 21:35 W 8 10.00 Fair CLR 59 50 72% 30.06 0.0
06 21:15 W 7 10.00 Fair CLR 60.8 50 68% 30.06 0.0
06 20:35 W 6 10.00 Fair CLR 62.6 50 64% 30.05 0.0
06 20:15 SW 6 10.00 Fair CLR 64.4 51.8 64% 30.04 0.0
06 19:55 SW 9 10.00 Fair CLR 64.4 51.8 64% 30.03 0.0
06 19:35 SW 12 10.00 Fair CLR 66.2 51.8 60% 30.02 0.0
06 19:15 SW 13 10.00 Fair CLR 68 51.8 56% 30.02 0.0
06 18:55 SW 13 10.00 Fair CLR 69.8 51.8 53% 30.01 0.0
06 18:35 SW 13 10.00 Fair CLR 71.6 51.8 50% 30 0.0
06 18:15 SW 15 10.00 Partly Cloudy SCT100 SCT120 73.4 51.8 47% 29.99 0.0
06 17:55 SW 16 10.00 Fair CLR 75.2 51.8 44% 78 29.99 0.0
06 17:35 SW 15 10.00 Fair CLR 75.2 51.8 44% 78 29.98 0.0
06 17:15 SW 15 10.00 Fair CLR 77 51.8 42% 78 29.98 0.0
06 16:55 SW 12 10.00 Fair CLR 78.8 50 37% 79 29.97 0.0
06 16:35 NW 12 10.00 Fair CLR 80.6 44.6 28% 79 29.97 0.0
06 16:15 NW 7 G 16 10.00 Fair CLR 80.6 42.8 26% 79 29.97 0.0
06 15:55 SW 6 10.00 Fair CLR 80.6 42.8 26% 79 29.98 0.0
06 15:35 SW 9 10.00 Fair CLR 78.8 42.8 28% 78 29.98 0.0
06 15:15 W 7 10.00 Fair CLR 80.6 44.6 28% 79 29.98 0.0
06 14:55 W 3 10.00 Fair CLR 78.8 42.8 28% 78 30 0.0
06 14:35 NW 6 10.00 Fair CLR 77 42.8 30% 78 30 0.0
06 14:15 S 6 10.00 Fair CLR 77 44.6 32% 78 30.01 0.0
06 13:55 S 6 10.00 Fair CLR 75.2 42.8 31% 77 30.02 0.0
06 13:35 SE 6 10.00 Fair CLR 75.2 44.6 34% 77 30.02 0.0
06 13:15 SW 3 10.00 Fair CLR 73.4 44.6 36% 30.04 0.0
06 12:55 SE 8 10.00 Fair CLR 73.4 44.6 36% 30.04 0.0
06 12:35 SE 6 10.00 Fair CLR 73.4 44.6 36% 30.05 0.0
06 12:15 W 7 10.00 Fair CLR 71.6 44.6 38% 30.06 0.0
06 11:55 W 7 10.00 Fair CLR 69.8 44.6 40% 30.07 0.0
06 11:35 Calm 10.00 Fair CLR 68 44.6 43% 30.07 0.0
06 11:15 SW 6 10.00 Fair CLR 68 44.6 43% 30.08 0.0
06 10:55 Calm 10.00 Fair CLR 64.4 42.8 46% 30.08 0.0
06 10:35 S 7 10.00 Fair CLR 64.4 42.8 46% 30.09 0.0
06 10:15 S 5 10.00 Fair CLR 62.6 42.8 49% 30.09 0.0
06 09:55 S 6 10.00 Fair CLR 62.6 42.8 49% 30.09 0.0
06 09:35 E 3 10.00 Fair CLR 60.8 41 48% 30.09 0.0
06 09:15 NE 3 10.00 Fair CLR 60.8 42.8 52% 30.09 0.0
06 08:55 Calm 10.00 Fair CLR 59 44.6 59% 30.09 0.0
06 08:35 Calm 10.00 Fair CLR 57.2 44.6 63% 30.09 0.0
06 08:15 Calm 10.00 Fair CLR 55.4 44.6 67% 30.09 0.0
06 07:55 Calm 10.00 Fair CLR 53.6 44.6 72% 30.09 0.0
06 07:35 E 3 10.00 Fair CLR 51.8 44.6 77% 30.09 0.0
06 07:15 Calm 10.00 Fair CLR 48.2 44.6 87% 30.09 0.0
06 06:55 NE 3 10.00 Fair CLR 46.4 44.6 93% 30.08 0.0
06 06:35 NE 3 10.00 Fair CLR 44.6 42.8 93% 30.08 0.0
06 06:15 NE 3 10.00 Fair CLR 42.8 41 93% 30.07 0.0
06 05:55 NE 3 10.00 Fair CLR 42.8 41 93% 30.07 0.0
06 05:35 Calm 10.00 Fair CLR 42.8 41 93% 30.07 0.0
06 05:15 Calm 10.00 Fair CLR 42.8 41 93% 30.06 0.0
06 04:55 Calm 10.00 Fair CLR 42.8 41 93% 30.06 0.0
06 04:35 Calm 10.00 Fair CLR 42.8 41 93% 30.06 0.0
06 04:15 Calm 10.00 Fair CLR 46.4 42.8 87% 30.06 0.0
06 03:55 SE 3 10.00 Fair CLR 48.2 44.6 87% 30.06 0.0
06 03:35 Calm 10.00 Fair CLR 48.2 44.6 87% 30.06 0.0
06 03:15 Calm 10.00 Fair CLR 46.4 44.6 93% 30.05 0.0
06 02:55 Calm 10.00 Fair CLR 46.4 44.6 93% 30.05 0.0
06 02:35 W 3 10.00 Fair CLR 48.2 44.6 87% 30.05 0.0
06 02:15 Calm 10.00 Partly Cloudy SCT030 50 44.6 82% 30.06 0.0
06 01:55 Calm 10.00 Mostly Cloudy BKN030 50 44.6 82% 30.06 0.0
06 01:35 Calm 10.00 Mostly Cloudy BKN030 50 44.6 82% 30.07 0.0
06 01:15 Calm 10.00 Mostly Cloudy BKN030 50 44.6 82% 30.07 0.0
06 00:55 Calm 10.00 Mostly Cloudy BKN032 50 44.6 82% 30.08 0.0
06 00:35 SW 6 10.00 Partly Cloudy SCT050 51.8 44.6 77% 30.08 0.0
06 00:15 SW 5 10.00 Overcast OVC050 51.8 46.4 82% 30.08 0.0
05 23:55 SW 3 10.00 Overcast OVC050 53.6 46.4 77% 30.07 0.0
05 23:15 S 6 10.00 Overcast SCT043 OVC050 53.6 48.2 82% 30.06 0.0
05 22:55 S 9 10.00 Overcast OVC050 53.6 48.2 82% 30.06 0.0
05 22:35 SW 8 10.00 Overcast OVC050 53.6 48.2 82% 30.06 0.0
05 22:15 S 8 10.00 Overcast OVC050 55.4 48.2 77% 30.05 0.0
05 21:55 S 8 10.00 Overcast OVC050 55.4 48.2 77% 30.04 0.0
05 21:35 SW 6 10.00 Overcast OVC050 55.4 48.2 77% 30.03 0.0
05 21:15 SW 9 10.00 Overcast OVC050 55.4 46.4 72% 30.03 0.0
05 20:55 SW 10 10.00 Overcast OVC050 55.4 46.4 72% 30.01 0.0
05 20:35 SW 9 10.00 Overcast OVC050 55.4 46.4 72% 30.01 0.0
05 20:15 SW 8 10.00 Overcast OVC050 57.2 46.4 67% 30 0.0
05 19:55 SW 9 10.00 Overcast OVC050 57.2 44.6 63% 29.99 0.0
05 19:35 SW 8 10.00 Overcast OVC050 57.2 44.6 63% 29.98 0.0
05 19:15 SW 10 10.00 Overcast OVC055 57.2 44.6 63% 29.98 0.0
05 18:55 SW 14 10.00 Overcast BKN050 OVC060 59 44.6 59% 29.97 0.0
05 18:35 SW 13 10.00 Overcast BKN050 OVC065 59 44.6 59% 29.96 0.0
05 18:15 SW 14 10.00 Overcast OVC050 59 44.6 59% 29.95 0.0
05 17:55 SW 14 10.00 Overcast SCT049 OVC065 59 44.6 59% 29.95 0.0
05 17:35 SW 12 10.00 Overcast SCT050 OVC065 59 44.6 59% 29.95 0.0
05 17:15 SW 15 10.00 Overcast OVC075 60.8 42.8 52% 29.95 0.0
05 16:55 SW 14 10.00 Overcast OVC085 60.8 42.8 52% 29.94 0.0
05 16:35 SW 14 10.00 Mostly Cloudy BKN085 62.6 42.8 49% 29.94 0.0
05 16:15 SW 14 10.00 Mostly Cloudy BKN085 62.6 42.8 49% 29.94 0.0
05 15:55 SW 15 10.00 Overcast OVC085 64.4 44.6 49% 29.94 0.0
05 15:35 SW 14 10.00 Overcast SCT046 SCT055 OVC085 64.4 44.6 49% 29.95 0.0
05 15:15 SW 10 10.00 Mostly Cloudy SCT055 SCT070 BKN085 62.6 42.8 49% 29.95 0.0
05 14:55 SW 9 10.00 Mostly Cloudy SCT046 SCT055 BKN065 62.6 42.8 49% 29.96 0.0
05 14:35 SW 7 10.00 Overcast SCT044 BKN050 OVC065 60.8 42.8 52% 29.96 0.0
05 14:15 Calm 10.00 Overcast BKN044 OVC050 60.8 42.8 52% 29.97 0.0
05 13:55 Calm 10.00 Overcast OVC044 60.8 44.6 55% 29.97 0.0
05 13:35 N 5 10.00 Overcast BKN041 OVC047 60.8 44.6 55% 29.97 0.0
05 13:15 Calm 10.00 Overcast OVC041 60.8 46.4 59% 29.97 0.0
05 12:55 S 8 10.00 Overcast BKN039 OVC046 62.6 44.6 52% 29.97 0.0
05 12:35 SW 6 10.00 Overcast BKN039 OVC048 60.8 44.6 55% 29.98 0.0
05 12:15 Calm 10.00 Overcast SCT041 BKN048 OVC070 60.8 41 48% 29.98 0.0
05 11:55 SW 9 10.00 Overcast SCT043 BKN070 OVC080 62.6 44.6 52% 29.98 0.0
05 11:35 S 5 10.00 Mostly Cloudy SCT041 SCT047 BKN065 60.8 44.6 55% 29.98 0.0
05 11:15 S 6 10.00 Overcast SCT032 SCT044 OVC065 60.8 46.4 59% 29.98 0.0
05 10:55 S 5 10.00 Overcast SCT029 SCT036 OVC065 57.2 48.2 72% 29.99 0.0
05 10:35 SW 3 10.00 Overcast SCT021 BKN030 OVC065 57.2 48.2 72% 29.98 0.0
05 10:15 S 3 10.00 Overcast SCT020 BKN027 OVC065 57.2 50 77% 29.98 0.0
05 09:55 S 3 10.00 Overcast SCT018 BKN025 OVC060 55.4 50 82% 29.97 0.0
05 09:35 S 3 10.00 Overcast BKN018 BKN024 OVC055 53.6 50 88% 29.97 0.0
05 09:15 Calm 10.00 Overcast BKN018 BKN043 OVC050 53.6 50 88% 29.96 0.0
05 08:55 W 6 10.00 Overcast SCT016 SCT021 OVC038 53.6 50 88% 29.96 0.0 0.01
05 08:35 SW 7 10.00 Overcast OVC038 53.6 50 88% 29.96 0.0 0.01
05 08:15 W 6 5.00 Light Rain Fog/Mist SCT007 BKN019 OVC038 53.6 50 88% 29.95 0.0
05 07:55 SW 6 10.00 Overcast SCT008 BKN014 OVC021 53.6 51.8 94% 29.95 0.0
05 07:35 SW 5 10.00 Overcast SCT009 BKN020 OVC055 51.8 50 94% 29.95 0.0
05 07:15 W 3 10.00 Overcast SCT009 BKN045 OVC065 51.8 51.8 100% 29.94 0.0
05 06:55 SW 5 7.00 Light Rain SCT007 SCT034 BKN060 51.8 51.8 100% 29.94 0.0 0.02
05 06:35 SW 5 2.00 Light Rain Fog/Mist BKN005 BKN015 OVC035 51.8 50 94% 29.94 0.0 0.01
05 06:15 W 3 10.00 Overcast OVC005 51.8 50 94% 29.93 0.0
05 05:55 W 3 4.00 Fog/Mist OVC008 51.8 50 94% 29.93 0.0
05 05:35 W 5 10.00 Overcast OVC010 51.8 50 94% 29.93 0.0
05 05:15 NW 3 10.00 Overcast OVC010 51.8 50 94% 29.93 0.0
05 04:55 Calm 10.00 Light Rain OVC012 51.8 50 94% 29.93 0.0 0.02
05 04:35 Calm 10.00 Light Rain SCT012 OVC021 51.8 50 94% 29.93 0.0 0.01
05 04:15 Calm 7.00 Light Rain OVC022 51.8 50 94% 29.93 0.0 0.01
05 03:55 NW 3 10.00 Overcast BKN016 OVC022 51.8 50 94% 29.93 0.0
05 03:35 NW 5 10.00 Light Rain SCT009 OVC016 51.8 50 94% 29.94 0.0
05 03:15 NW 3 10.00 Overcast SCT009 OVC018 51.8 50 94% 29.94 0.0
05 02:55 Calm 10.00 Overcast SCT009 OVC018 51.8 50 94% 29.94 0.0
05 02:35 N 3 10.00 Overcast BKN016 OVC026 51.8 48.2 88% 29.94 0.0
05 02:15 N 5 10.00 Overcast OVC028 51.8 48.2 88% 29.95 0.0
05 01:55 NE 3 10.00 Overcast OVC030 50 48.2 94% 29.96 0.0 0.01
05 01:35 Calm 10.00 Light Drizzle SCT031 BKN048 OVC060 50 48.2 94% 29.96 0.0 0.01
05 01:15 Calm 10.00 Light Rain SCT024 SCT031 OVC050 51.8 48.2 88% 29.97 0.0
05 00:55 NW 3 10.00 Light Drizzle SCT024 OVC029 51.8 48.2 88% 29.97 0.0
05 00:35 W 5 10.00 Overcast SCT024 OVC031 51.8 48.2 88% 29.98 0.0
05 00:15 W 8 7.00 Overcast SCT014 BKN026 OVC038 53.6 48.2 82% 29.98 0.0
04 23:55 SW 7 10.00 Overcast SCT016 BKN041 OVC050 53.6 50 88% 29.98 0.0
04 23:35 SW 6 10.00 Overcast SCT019 OVC041 53.6 48.2 82% 29.98 0.0
04 23:15 SW 6 10.00 Light Rain SCT022 OVC039 53.6 48.2 82% 29.98 0.0
04 22:55 SW 3 10.00 Overcast SCT022 OVC035 53.6 50 88% 29.98 0.0
04 22:35 Calm 10.00 Light Rain BKN037 OVC045 53.6 50 88% 29.98 0.0
04 22:15 SW 7 10.00 Light Rain BKN038 OVC046 55.4 48.2 77% 29.98 0.0
04 21:55 SW 6 10.00 Overcast SCT043 OVC048 55.4 46.4 72% 29.98 0.0
04 21:35 SW 10 10.00 Overcast SCT038 OVC048 57.2 46.4 67% 29.98 0.0
04 21:15 SW 12 10.00 Overcast BKN040 OVC046 57.2 44.6 63% 29.98 0.0
04 20:55 SW 13 10.00 Overcast OVC035 57.2 44.6 63% 29.98 0.0
04 20:35 SW 12 10.00 Overcast BKN038 OVC070 57.2 46.4 67% 29.97 0.0
04 20:15 SW 8 10.00 Overcast SCT038 OVC070 57.2 44.6 63% 29.96 0.0
04 19:55 W 10 10.00 Overcast OVC070 59 44.6 59% 29.96 0.0
04 19:35 W 12 10.00 Overcast OVC070 59 44.6 59% 29.95 0.0
04 19:15 W 14 10.00 Overcast OVC070 59 44.6 59% 29.96 0.0
04 18:55 W 13 10.00 Overcast OVC070 60.8 44.6 55% 29.96 0.0
04 18:35 W 14 10.00 Overcast OVC070 62.6 42.8 49% 29.95 0.0
04 18:15 W 13 10.00 Mostly Cloudy BKN070 BKN090 62.6 42.8 49% 29.95 0.0
04 17:55 W 14 10.00 Partly Cloudy SCT070 62.6 42.8 49% 29.95 0.0
04 17:35 W 12 G 17 10.00 Mostly Cloudy SCT055 BKN070 66.2 41 40% 29.94 0.0
04 17:15 W 9 10.00 Mostly Cloudy SCT055 BKN070 66.2 41 40% 29.95 0.0
04 16:55 W 9 G 18 10.00 Overcast OVC070 68 39.2 35% 29.95 0.0
04 16:35 W 12 G 20 10.00 Overcast OVC070 68 39.2 35% 29.94 0.0
04 16:15 NW 10 10.00 Overcast OVC070 66.2 39.2 37% 29.95 0.0
04 15:55 W 6 10.00 Overcast OVC070 64.4 39.2 40% 29.95 0.0
04 15:35 NW 7 10.00 Overcast SCT060 OVC070 64.4 39.2 40% 29.96 0.0
04 15:15 W 12 10.00 Overcast OVC070 66.2 41 40% 29.97 0.0
04 14:55 W 6 10.00 Overcast SCT050 OVC070 66.2 41 40% 29.97 0.0
04 14:35 W 7 10.00 Overcast OVC060 64.4 41 43% 29.98 0.0
04 14:15 W 8 10.00 Overcast OVC060 62.6 41 45% 29.99 0.0
04 13:55 NW 6 10.00 Overcast OVC060 64.4 41 43% 29.99 0.0
04 13:35 NW 9 10.00 Overcast OVC070 64.4 41 43% 29.99 0.0
04 13:15 W 8 G 18 10.00 Overcast BKN045 OVC055 64.4 41 43% 29.99 0.0
04 12:55 S 9 10.00 Overcast OVC045 62.6 42.8 49% 30 0.0
04 12:35 SW 9 10.00 Overcast BKN045 OVC060 62.6 42.8 49% 30 0.0
04 12:15 NW 6 10.00 Overcast OVC060 60.8 42.8 52% 30.01 0.0
04 11:55 SW 6 10.00 Overcast SCT040 BKN050 OVC060 60.8 42.8 52% 30.02 0.0
04 11:35 S 9 10.00 Overcast SCT038 OVC055 60.8 42.8 52% 30.01 0.0
04 11:15 SW 12 10.00 Overcast SCT039 BKN047 OVC050 60.8 42.8 52% 30.02 0.0
04 10:55 SW 12 10.00 Overcast BKN044 OVC050 59 42.8 55% 30.01 0.0
04 10:35 S 7 10.00 Overcast SCT043 OVC050 60.8 42.8 52% 30 0.0
04 10:15 S 10 10.00 Overcast BKN042 OVC048 60.8 41 48% 30 0.0
04 09:55 Calm 10.00 Overcast BKN042 OVC047 59 42.8 55% 30 0.0
04 09:35 S 7 10.00 Overcast SCT026 OVC044 59 44.6 59% 30 0.0
04 09:15 S 5 10.00 Overcast SCT026 SCT032 OVC042 57.2 44.6 63% 29.99 0.0
04 08:55 SW 6 10.00 Mostly Cloudy SCT028 BKN032 BKN038 57.2 44.6 63% 29.99 0.0
04 08:35 SE 3 10.00 Partly Cloudy SCT048 57.2 46.4 67% 29.99 0.0
04 08:15 Calm 10.00 Mostly Cloudy BKN048 BKN050 55.4 46.4 72% 29.99 0.0
04 07:55 S 5 10.00 Partly Cloudy SCT050 55.4 46.4 72% 29.99 0.0
04 07:35 Calm 10.00 Mostly Cloudy SCT022 BKN050 53.6 46.4 77% 29.98 0.0
04 07:15 Calm 10.00 Overcast SCT022 OVC050 53.6 46.4 77% 29.98 0.0
04 06:55 Calm 10.00 Overcast BKN022 OVC050 53.6 46.4 77% 29.99 0.0
04 06:35 NW 5 10.00 Overcast BKN022 BKN033 OVC048 53.6 44.6 72% 29.99 0.0
04 06:15 NW 5 10.00 Overcast BKN024 OVC029 53.6 44.6 72% 29.99 0.0
04 05:55 Calm 10.00 Overcast BKN024 OVC030 53.6 46.4 77% 29.98 0.0
04 05:35 Calm 10.00 Overcast SCT017 OVC022 53.6 48.2 82% 29.97 0.0
04 05:15 SW 3 10.00 Overcast BKN022 BKN028 OVC050 53.6 48.2 82% 29.97 0.0
04 04:55 SW 5 10.00 Mostly Cloudy SCT022 BKN050 BKN070 53.6 48.2 82% 29.97 0.0
04 04:35 W 3 10.00 Partly Cloudy SCT050 SCT070 51.8 46.4 82% 29.97 0.0
04 04:15 NW 3 10.00 Mostly Cloudy SCT023 SCT032 BKN047 53.6 46.4 77% 29.96 0.0
04 03:55 W 3 10.00 Overcast BKN025 BKN032 OVC049 53.6 46.4 77% 29.97 0.0
04 03:35 SW 3 10.00 Overcast SCT023 BKN032 OVC049 53.6 46.4 77% 29.96 0.0
04 03:15 SW 5 10.00 Overcast OVC049 53.6 48.2 82% 29.96 0.0
Date Time (pdt) Wind (mph) Vis. (mi.) Weather Sky Cond. Air Dwpt Max. Min. Relative Humidity Wind Chill (°F) Heat Index (°F) altimeter (in) sea level (mb) 1 hr 3 hr 6 hr
6 hour
Temperature (ºF) Pressure Precipitation (in)